Pagrindinis puslapis
METAR-TAF:

METAR-TAF

Oro uostai :

Augsburgas, Vokietija

platuma: 48-26N, ilguma: 010-56E, Aukštis: 461 m

Dabartinis oras

Ataskaita buvo paskelbta 41 minutes, ne 04:20 UTC
Vėjas 8 kt iš Pietų/Pietvakarių
Temperatūra 11°C
Drėgmė 54%
Slėgis 1017 hPa
Matomumas 10 km arba daugiau

METAR: EDMA 170420Z AUTO 20008KT 9999 // FEW150/// 11/02 Q1017

Laikas: 06:01 (05:01 UTC)

Prognozė

Ataskaita buvo paskelbta 12 valandos ir 1 minutes, ne 17:00 UTC
Prognozė galioja nuo 16 metu 18 UTC su 17 metu 03 UTC
Vėjas 10 kt iš Pietų/Pietryčių
Matomumas 10 km arba daugiau
nėra debesų žemiau 1500 m ir nėra kamuolinių lietaus debesų
Tapsmas
nuo 16 metu 21 UTC su 16 metu 23 UTC
Vėjas 10 kt iš Pietų/Pietvakarių

TAF: EDMA 161700Z 1618/1703 15010KT CAVOK BECMG 1621/1623 21010KT

Orai ataskaitas ir orų prognozės (METAR, TAF).

turimą stotys yra geltonos ir raudonos taškus žemėlapyje.

Perkelti pele per norėdami pamatyti stoties vardą.

Tada spustelėkite, norėdami matyti oro stebėjimo ir prognozės.

Norėdami pakeisti žemėlapį: spustelėkite ant žalios mygtukų su juodo kryžiaus žemyn,; žalią mygtuką su brūkšneliu, jei norite nutolinti; arba žalių rodyklių gretimoms žemėlapius.


METAR-TAF: